Science Garden, Philippines

2:18 AM PHT on April 01, 2015 (GMT +0800)
Loyola Heights | | Change Station
CLOSE
Current Station
Personal Weather Station
Location: Quezon City, NCR
Elevation: 187 ft
Nearby Weather Stations

Elev 187 ft 14.64 °N, 121.08 °E | Updated 11 minutes ago

Scattered Clouds
Scattered Clouds
80.1 °F
Feels Like 84 °F
N
1.0
Wind Variable Wind from SSE

Today
High -- | Low -- °F
--% Chance of Precip.
Yesterday
High -- | Low -- °F
Precip. -- in
5:52 AM 6:08 PM
Waxing Gibbous, 88% visible
Pressure 29.89 in
Visibility 6.2 miles
Clouds Scattered Clouds 2500 ft
Heat Index 84 °F
Dew Point 73 °F
Humidity 78%
Rainfall 0.00 in
Snow Depth Not available.
UV 0.0 out of 12
Pollen Not available.
Air Quality Not available.
Flu Activity Not available.
METAR RPLL 311800Z 12006KT 090V170 9999 SCT025 27/22 Q1012 NOSIG RMK A2988

More Conditions Fewer Conditions

Pressure 29.89 in
Visibility 6.2 miles
Clouds Scattered Clouds 2500 ft
Heat Index 84 °F
Dew Point 73 °F
Humidity 78%
Rainfall 0.00 in
Snow Depth Not available.
UV 0.0 out of 12
Pollen Not available.
Air Quality Not available.
Flu Activity Not available.
METAR RPLL 311800Z 12006KT 090V170 9999 SCT025 27/22 Q1012 NOSIG RMK A2988

More Conditions Fewer Conditions

10-Day Weather Forecast

Almanac

Astronomy

Apr. 01, 2015 Rise Set
Actual Time
Civil Twilight
Nautical Twilight
Astronomical Twilight
Moon
Length of Visible Light
Length of Day
Tomorrow will be .
, % of the Moon is Illuminated

Today's Extremes

Country Highs Country Lows

Community

WunderPhotos

Upload Photos

1,809,786 photos uploaded!

WunderBlogs® & News

Nearby

Air Quality

  Air Quality AQ Index Pollutant
Not available.

Snow Depth

Station Depth Elevation

Earthquake Activity

City Distance Mag. Time & Date
Minimum magnitude displayed is 2.5.

Coastal Water Temperatures

Place Temperature

Stations

Nearby Weather Stations

Station Location Temp. Windchill Dew Point Humidity Wind Precip. Elev Updated Type